KCEY

Details ICAO KCEY
Name KYLE OAKLEY FLD
Region United States
Timezone America/Chicago (UTC-5.0)
Plans Departing 12
Arriving 3
Stats Elevation 576 ft / 176 m (AMSL)
Location 36.664583° -88.372776°
Runways 1
Magnetic Variation 2.712° W
Sunrise 2018-05-21 10:43:15 UTC / 2018-05-21 05:43:15 Local
Sunset 2018-05-22 00:59:48 UTC / 2018-05-21 19:59:48 Local
Advertisement - Login to hide

Runways

ID Width Length Bearing (true) Bearing (mag) Surface Threshold Offset Overrun Length
05 100 ft / 30 m 6,198 ft / 1,889 m 49.76° 52.47° Asphalt 0 ft / 0 m 0 ft / 0 m
23 100 ft / 30 m 6,198 ft / 1,889 m 229.77° 232.48° Asphalt 0 ft / 0 m 0 ft / 0 m

Map

Weather


0- 5 10 15 20 25 30 35+ Temperature / ° C

Clouds and Precipitation
Forecast for 2018-05-21 18:00 UTC. Updated 4 hours ago

Ground ~20,000 ft ~40,000 ft Winds

METAR

KCEY 212115Z AUTO 21005KT 8SM FEW050 BKN085 25/20 A3003 RMK AO1

TAF

Not found

Frequencies

Recorded 119.97 MHz AWOS 3
Unicom 122.70 MHz CTAF/UNICOM
Warning: Do not use this data for real-world aviation or navigation. No guarantee of current accuracy is given.